sensor_id;sensor_type;location;lat;lon;timestamp;P1;durP1;ratioP1;P2;durP2;ratioP2
9940;SDS011;5009;50.656;7.188;2023-03-23T05:02:38;1.77;;;1.30;;
9940;SDS011;5009;50.656;7.188;2023-03-23T05:05:05;1.70;;;1.53;;
9940;SDS011;5009;50.656;7.188;2023-03-23T05:07:36;1.60;;;1.50;;
9940;SDS011;5009;50.656;7.188;2023-03-23T05:10:03;1.87;;;1.67;;
9940;SDS011;5009;50.656;7.188;2023-03-23T05:12:30;1.57;;;1.47;;
9940;SDS011;5009;50.656;7.188;2023-03-23T05:14:56;2.10;;;1.87;;
9940;SDS011;5009;50.656;7.188;2023-03-23T05:17:22;1.93;;;1.83;;
9940;SDS011;5009;50.656;7.188;2023-03-23T05:19:49;1.97;;;1.80;;
9940;SDS011;5009;50.656;7.188;2023-03-23T05:22:15;3.43;;;1.77;;
9940;SDS011;5009;50.656;7.188;2023-03-23T05:24:41;2.13;;;1.93;;
9940;SDS011;5009;50.656;7.188;2023-03-23T05:27:08;2.10;;;1.40;;
9940;SDS011;5009;50.656;7.188;2023-03-23T05:29:35;3.40;;;1.80;;
9940;SDS011;5009;50.656;7.188;2023-03-23T05:32:04;1.87;;;1.73;;
9940;SDS011;5009;50.656;7.188;2023-03-23T05:34:30;1.80;;;1.70;;
9940;SDS011;5009;50.656;7.188;2023-03-23T05:36:57;2.70;;;1.70;;
9940;SDS011;5009;50.656;7.188;2023-03-23T05:39:23;1.87;;;1.77;;
9940;SDS011;5009;50.656;7.188;2023-03-23T05:41:49;2.43;;;1.97;;
9940;SDS011;5009;50.656;7.188;2023-03-23T05:44:15;4.00;;;1.67;;
9940;SDS011;5009;50.656;7.188;2023-03-23T05:46:41;2.13;;;1.97;;
9940;SDS011;5009;50.656;7.188;2023-03-23T05:49:06;1.87;;;1.57;;
9940;SDS011;5009;50.656;7.188;2023-03-23T05:51:32;2.00;;;1.90;;
9940;SDS011;5009;50.656;7.188;2023-03-23T05:53:58;2.20;;;1.97;;
9940;SDS011;5009;50.656;7.188;2023-03-23T05:56:24;2.97;;;1.70;;
9940;SDS011;5009;50.656;7.188;2023-03-23T05:58:50;2.67;;;1.70;;
9940;SDS011;5009;50.656;7.188;2023-03-23T06:01:15;1.80;;;1.70;;
9940;SDS011;5009;50.656;7.188;2023-03-23T06:03:41;1.73;;;1.63;;
9940;SDS011;5009;50.656;7.188;2023-03-23T06:06:09;1.93;;;1.83;;
9940;SDS011;5009;50.656;7.188;2023-03-23T06:08:36;2.53;;;1.90;;
9940;SDS011;5009;50.656;7.188;2023-03-23T06:11:03;1.70;;;1.60;;
9940;SDS011;5009;50.656;7.188;2023-03-23T06:13:29;1.97;;;1.77;;
9940;SDS011;5009;50.656;7.188;2023-03-23T06:15:55;2.13;;;1.80;;
9940;SDS011;5009;50.656;7.188;2023-03-23T06:18:24;1.97;;;1.87;;
9940;SDS011;5009;50.656;7.188;2023-03-23T06:20:50;3.17;;;1.90;;
9940;SDS011;5009;50.656;7.188;2023-03-23T06:23:17;2.27;;;1.70;;
9940;SDS011;5009;50.656;7.188;2023-03-23T06:25:42;3.30;;;1.90;;
9940;SDS011;5009;50.656;7.188;2023-03-23T06:28:09;1.80;;;1.70;;
9940;SDS011;5009;50.656;7.188;2023-03-23T06:30:35;3.17;;;1.60;;
9940;SDS011;5009;50.656;7.188;2023-03-23T06:33:02;1.83;;;1.73;;
9940;SDS011;5009;50.656;7.188;2023-03-23T06:35:30;3.13;;;1.97;;
9940;SDS011;5009;50.656;7.188;2023-03-23T06:37:56;2.10;;;1.93;;
9940;SDS011;5009;50.656;7.188;2023-03-23T06:40:26;2.50;;;2.07;;
9940;SDS011;5009;50.656;7.188;2023-03-23T06:42:53;1.97;;;1.73;;
9940;SDS011;5009;50.656;7.188;2023-03-23T06:45:19;2.17;;;1.97;;
9940;SDS011;5009;50.656;7.188;2023-03-23T06:47:44;2.73;;;2.50;;
9940;SDS011;5009;50.656;7.188;2023-03-23T06:50:10;2.20;;;2.00;;
9940;SDS011;5009;50.656;7.188;2023-03-23T06:52:36;3.03;;;2.07;;
9940;SDS011;5009;50.656;7.188;2023-03-23T06:55:01;1.90;;;1.70;;
9940;SDS011;5009;50.656;7.188;2023-03-23T06:57:27;2.10;;;1.90;;
9940;SDS011;5009;50.656;7.188;2023-03-23T06:59:52;3.40;;;1.83;;
9940;SDS011;5009;50.656;7.188;2023-03-23T07:02:18;2.43;;;1.70;;
9940;SDS011;5009;50.656;7.188;2023-03-23T07:04:44;2.37;;;1.90;;
9940;SDS011;5009;50.656;7.188;2023-03-23T07:07:10;3.17;;;1.70;;
9940;SDS011;5009;50.656;7.188;2023-03-23T07:09:40;3.80;;;2.20;;
9940;SDS011;5009;50.656;7.188;2023-03-23T07:12:07;2.20;;;1.70;;
9940;SDS011;5009;50.656;7.188;2023-03-23T07:14:32;2.83;;;2.00;;
9940;SDS011;5009;50.656;7.188;2023-03-23T07:16:58;2.97;;;2.10;;
9940;SDS011;5009;50.656;7.188;2023-03-23T07:19:23;2.97;;;1.70;;
9940;SDS011;5009;50.656;7.188;2023-03-23T07:21:49;3.43;;;2.00;;
9940;SDS011;5009;50.656;7.188;2023-03-23T07:24:15;3.83;;;2.00;;
9940;SDS011;5009;50.656;7.188;2023-03-23T07:26:41;4.50;;;2.00;;
9940;SDS011;5009;50.656;7.188;2023-03-23T07:29:07;4.63;;;2.57;;
9940;SDS011;5009;50.656;7.188;2023-03-23T07:31:34;2.47;;;2.27;;
9940;SDS011;5009;50.656;7.188;2023-03-23T07:33:59;1.83;;;1.73;;
9940;SDS011;5009;50.656;7.188;2023-03-23T07:36:26;2.37;;;2.03;;
9940;SDS011;5009;50.656;7.188;2023-03-23T07:38:51;2.37;;;2.00;;
9940;SDS011;5009;50.656;7.188;2023-03-23T07:41:17;5.13;;;2.03;;
9940;SDS011;5009;50.656;7.188;2023-03-23T07:43:44;1.90;;;1.70;;
9940;SDS011;5009;50.656;7.188;2023-03-23T07:46:10;2.80;;;1.77;;
9940;SDS011;5009;50.656;7.188;2023-03-23T07:48:36;2.77;;;1.57;;
9940;SDS011;5009;50.656;7.188;2023-03-23T07:51:02;2.30;;;1.73;;
9940;SDS011;5009;50.656;7.188;2023-03-23T07:53:28;2.50;;;1.80;;
9940;SDS011;5009;50.656;7.188;2023-03-23T07:55:54;1.63;;;1.53;;
9940;SDS011;5009;50.656;7.188;2023-03-23T07:58:19;2.00;;;1.73;;
9940;SDS011;5009;50.656;7.188;2023-03-23T08:00:48;2.73;;;1.93;;
9940;SDS011;5009;50.656;7.188;2023-03-23T08:03:14;2.80;;;2.00;;
9940;SDS011;5009;50.656;7.188;2023-03-23T08:05:41;2.57;;;1.90;;
9940;SDS011;5009;50.656;7.188;2023-03-23T08:08:07;2.63;;;1.87;;
9940;SDS011;5009;50.656;7.188;2023-03-23T08:10:34;1.50;;;1.40;;
9940;SDS011;5009;50.656;7.188;2023-03-23T08:13:01;1.77;;;1.60;;
9940;SDS011;5009;50.656;7.188;2023-03-23T08:15:26;2.50;;;1.83;;
9940;SDS011;5009;50.656;7.188;2023-03-23T08:17:53;1.93;;;1.50;;
9940;SDS011;5009;50.656;7.188;2023-03-23T08:20:19;2.73;;;1.93;;
9940;SDS011;5009;50.656;7.188;2023-03-23T08:22:53;2.27;;;2.07;;
9940;SDS011;5009;50.656;7.188;2023-03-23T08:25:21;2.03;;;1.80;;
9940;SDS011;5009;50.656;7.188;2023-03-23T08:27:48;4.77;;;2.03;;
9940;SDS011;5009;50.656;7.188;2023-03-23T08:30:15;2.33;;;1.73;;
9940;SDS011;5009;50.656;7.188;2023-03-23T08:32:42;2.73;;;1.90;;
9940;SDS011;5009;50.656;7.188;2023-03-23T08:35:08;2.40;;;1.80;;
9940;SDS011;5009;50.656;7.188;2023-03-23T08:37:36;1.90;;;1.50;;
9940;SDS011;5009;50.656;7.188;2023-03-23T08:40:02;2.63;;;1.77;;
9940;SDS011;5009;50.656;7.188;2023-03-23T08:42:33;2.40;;;1.63;;
9940;SDS011;5009;50.656;7.188;2023-03-23T08:44:58;2.90;;;1.97;;
9940;SDS011;5009;50.656;7.188;2023-03-23T08:47:24;2.00;;;1.80;;
9940;SDS011;5009;50.656;7.188;2023-03-23T08:49:50;2.80;;;1.70;;
9940;SDS011;5009;50.656;7.188;2023-03-23T08:52:18;2.07;;;1.70;;
9940;SDS011;5009;50.656;7.188;2023-03-23T08:54:43;2.63;;;1.73;;
9940;SDS011;5009;50.656;7.188;2023-03-23T08:57:12;2.50;;;1.70;;
9940;SDS011;5009;50.656;7.188;2023-03-23T08:59:37;3.37;;;2.00;;
9940;SDS011;5009;50.656;7.188;2023-03-23T09:02:03;1.80;;;1.50;;
9940;SDS011;5009;50.656;7.188;2023-03-23T09:04:28;3.07;;;1.77;;
9940;SDS011;5009;50.656;7.188;2023-03-23T09:06:55;3.17;;;1.53;;
9940;SDS011;5009;50.656;7.188;2023-03-23T09:09:22;3.73;;;1.60;;
9940;SDS011;5009;50.656;7.188;2023-03-23T09:11:47;2.07;;;1.47;;
9940;SDS011;5009;50.656;7.188;2023-03-23T09:14:13;2.57;;;1.83;;
9940;SDS011;5009;50.656;7.188;2023-03-23T09:16:38;1.93;;;1.70;;
9940;SDS011;5009;50.656;7.188;2023-03-23T09:19:05;2.20;;;1.57;;
9940;SDS011;5009;50.656;7.188;2023-03-23T09:21:30;2.50;;;2.00;;
9940;SDS011;5009;50.656;7.188;2023-03-23T09:23:57;3.40;;;2.17;;
9940;SDS011;5009;50.656;7.188;2023-03-23T09:26:23;2.43;;;1.80;;
9940;SDS011;5009;50.656;7.188;2023-03-23T09:28:50;2.13;;;1.90;;
9940;SDS011;5009;50.656;7.188;2023-03-23T09:31:16;2.00;;;1.40;;
9940;SDS011;5009;50.656;7.188;2023-03-23T09:33:45;2.10;;;1.40;;
9940;SDS011;5009;50.656;7.188;2023-03-23T09:36:11;1.60;;;1.50;;
9940;SDS011;5009;50.656;7.188;2023-03-23T09:38:39;4.43;;;1.60;;
9940;SDS011;5009;50.656;7.188;2023-03-23T09:49:33;2.10;;;1.70;;
9940;SDS011;5009;50.656;7.188;2023-03-23T09:52:15;1.20;;;1.20;;
9940;SDS011;5009;50.656;7.188;2023-03-23T09:54:47;1.87;;;1.43;;
9940;SDS011;5009;50.656;7.188;2023-03-23T10:02:41;1.30;;;1.20;;
9940;SDS011;5009;50.656;7.188;2023-03-23T10:05:31;1.67;;;1.15;;
9940;SDS011;5009;50.656;7.188;2023-03-23T10:07:59;2.22;;;1.40;;
9940;SDS011;5009;50.656;7.188;2023-03-23T10:10:31;1.42;;;1.33;;
9940;SDS011;5009;50.656;7.188;2023-03-23T10:13:28;1.23;;;1.13;;
9940;SDS011;5009;50.656;7.188;2023-03-23T10:16:15;1.42;;;1.33;;
9940;SDS011;5009;50.656;7.188;2023-03-23T10:19:07;1.77;;;1.23;;
9940;SDS011;5009;50.656;7.188;2023-03-23T10:21:47;1.98;;;1.33;;
9940;SDS011;5009;50.656;7.188;2023-03-23T10:24:21;2.42;;;1.20;;
9940;SDS011;5009;50.656;7.188;2023-03-23T10:29:42;1.80;;;0.93;;
9940;SDS011;5009;50.656;7.188;2023-03-23T10:32:17;1.13;;;0.93;;
9940;SDS011;5009;50.656;7.188;2023-03-23T10:37:22;2.88;;;1.60;;
9940;SDS011;5009;50.656;7.188;2023-03-23T10:39:54;1.42;;;1.33;;
9940;SDS011;5009;50.656;7.188;2023-03-23T10:42:29;1.08;;;1.08;;
9940;SDS011;5009;50.656;7.188;2023-03-23T10:44:57;1.27;;;1.17;;
9940;SDS011;5009;50.656;7.188;2023-03-23T10:47:25;2.35;;;0.90;;
9940;SDS011;5009;50.656;7.188;2023-03-23T10:49:58;1.05;;;1.02;;
9940;SDS011;5009;50.656;7.188;2023-03-23T10:55:09;0.95;;;0.95;;
9940;SDS011;5009;50.656;7.188;2023-03-23T10:57:44;1.15;;;1.05;;
9940;SDS011;5009;50.656;7.188;2023-03-23T11:00:17;1.27;;;1.00;;
9940;SDS011;5009;50.656;7.188;2023-03-23T11:02:46;2.15;;;1.27;;
9940;SDS011;5009;50.656;7.188;2023-03-23T11:05:24;0.85;;;0.85;;
9940;SDS011;5009;50.656;7.188;2023-03-23T11:08:21;0.95;;;0.95;;
9940;SDS011;5009;50.656;7.188;2023-03-23T11:10:53;1.20;;;1.15;;
9940;SDS011;5009;50.656;7.188;2023-03-23T11:13:28;2.53;;;1.15;;
9940;SDS011;5009;50.656;7.188;2023-03-23T11:15:57;1.17;;;1.08;;
9940;SDS011;5009;50.656;7.188;2023-03-23T11:20:59;1.20;;;1.10;;
9940;SDS011;5009;50.656;7.188;2023-03-23T11:23:27;2.05;;;1.10;;
9940;SDS011;5009;50.656;7.188;2023-03-23T11:28:43;2.05;;;1.15;;
9940;SDS011;5009;50.656;7.188;2023-03-23T11:31:16;1.20;;;1.10;;
9940;SDS011;5009;50.656;7.188;2023-03-23T11:36:17;1.25;;;1.20;;
9940;SDS011;5009;50.656;7.188;2023-03-23T11:38:43;1.25;;;1.10;;
9940;SDS011;5009;50.656;7.188;2023-03-23T11:41:11;1.58;;;1.33;;
9940;SDS011;5009;50.656;7.188;2023-03-23T11:43:41;1.42;;;1.00;;
9940;SDS011;5009;50.656;7.188;2023-03-23T11:54:16;1.25;;;1.15;;
9940;SDS011;5009;50.656;7.188;2023-03-23T11:56:56;1.42;;;1.20;;
9940;SDS011;5009;50.656;7.188;2023-03-23T11:59:29;1.73;;;1.60;;
9940;SDS011;5009;50.656;7.188;2023-03-23T12:02:05;2.08;;;1.58;;
9940;SDS011;5009;50.656;7.188;2023-03-23T12:10:18;1.50;;;1.40;;
9940;SDS011;5009;50.656;7.188;2023-03-23T12:13:02;1.63;;;1.33;;
9940;SDS011;5009;50.656;7.188;2023-03-23T12:18:25;1.38;;;1.27;;
9940;SDS011;5009;50.656;7.188;2023-03-23T12:21:13;2.63;;;1.40;;
9940;SDS011;5009;50.656;7.188;2023-03-23T12:23:53;1.55;;;1.45;;
9940;SDS011;5009;50.656;7.188;2023-03-23T12:26:48;1.45;;;1.35;;
9940;SDS011;5009;50.656;7.188;2023-03-23T12:32:17;3.35;;;1.30;;
9940;SDS011;5009;50.656;7.188;2023-03-23T12:35:07;3.55;;;1.85;;
9940;SDS011;5009;50.656;7.188;2023-03-23T12:48:33;2.45;;;1.58;;
9940;SDS011;5009;50.656;7.188;2023-03-23T12:51:05;4.70;;;1.70;;
9940;SDS011;5009;50.656;7.188;2023-03-23T12:53:43;2.05;;;1.80;;
9940;SDS011;5009;50.656;7.188;2023-03-23T12:56:28;2.65;;;1.65;;
9940;SDS011;5009;50.656;7.188;2023-03-23T12:59:21;2.97;;;1.75;;
9940;SDS011;5009;50.656;7.188;2023-03-23T13:01:59;3.70;;;1.70;;
9940;SDS011;5009;50.656;7.188;2023-03-23T13:05:47;2.25;;;1.70;;
9940;SDS011;5009;50.656;7.188;2023-03-23T13:07:49;2.03;;;1.42;;
9940;SDS011;5009;50.656;7.188;2023-03-23T13:10:33;4.63;;;1.80;;
9940;SDS011;5009;50.656;7.188;2023-03-23T13:13:24;2.13;;;1.52;;
9940;SDS011;5009;50.656;7.188;2023-03-23T13:21:50;2.45;;;1.73;;
9940;SDS011;5009;50.656;7.188;2023-03-23T13:24:31;3.40;;;1.90;;
9940;SDS011;5009;50.656;7.188;2023-03-23T13:27:01;3.15;;;2.00;;
9940;SDS011;5009;50.656;7.188;2023-03-23T13:29:26;2.38;;;1.98;;
9940;SDS011;5009;50.656;7.188;2023-03-23T13:32:04;3.67;;;1.92;;
9940;SDS011;5009;50.656;7.188;2023-03-23T13:34:38;3.03;;;1.75;;
9940;SDS011;5009;50.656;7.188;2023-03-23T13:37:08;2.20;;;1.60;;
9940;SDS011;5009;50.656;7.188;2023-03-23T13:39:50;3.28;;;2.08;;
9940;SDS011;5009;50.656;7.188;2023-03-23T13:42:47;2.65;;;1.88;;
9940;SDS011;5009;50.656;7.188;2023-03-23T13:45:22;2.45;;;1.75;;
9940;SDS011;5009;50.656;7.188;2023-03-23T13:48:39;2.58;;;1.73;;
9940;SDS011;5009;50.656;7.188;2023-03-23T13:53:23;3.58;;;2.00;;
9940;SDS011;5009;50.656;7.188;2023-03-23T13:56:05;3.63;;;2.15;;
9940;SDS011;5009;50.656;7.188;2023-03-23T13:58:44;2.83;;;1.77;;
9940;SDS011;5009;50.656;7.188;2023-03-23T14:01:16;5.13;;;2.10;;
9940;SDS011;5009;50.656;7.188;2023-03-23T14:03:47;2.70;;;2.00;;
9940;SDS011;5009;50.656;7.188;2023-03-23T14:06:22;2.10;;;1.90;;
9940;SDS011;5009;50.656;7.188;2023-03-23T14:08:50;2.58;;;1.95;;
9940;SDS011;5009;50.656;7.188;2023-03-23T14:11:20;3.65;;;2.22;;
9940;SDS011;5009;50.656;7.188;2023-03-23T14:13:50;4.00;;;2.40;;
9940;SDS011;5009;50.656;7.188;2023-03-23T14:16:31;3.30;;;2.35;;
9940;SDS011;5009;50.656;7.188;2023-03-23T14:19:03;3.15;;;2.15;;
9940;SDS011;5009;50.656;7.188;2023-03-23T14:21:39;2.10;;;1.90;;
9940;SDS011;5009;50.656;7.188;2023-03-23T14:24:15;1.65;;;1.55;;
9940;SDS011;5009;50.656;7.188;2023-03-23T14:26:44;2.10;;;1.70;;
9940;SDS011;5009;50.656;7.188;2023-03-23T14:29:10;2.47;;;1.67;;
9940;SDS011;5009;50.656;7.188;2023-03-23T14:31:37;3.13;;;1.70;;
9940;SDS011;5009;50.656;7.188;2023-03-23T14:34:06;2.50;;;1.70;;
9940;SDS011;5009;50.656;7.188;2023-03-23T14:36:38;1.83;;;1.70;;
9940;SDS011;5009;50.656;7.188;2023-03-23T14:39:07;2.15;;;1.83;;
9940;SDS011;5009;50.656;7.188;2023-03-23T14:41:45;2.72;;;2.05;;
9940;SDS011;5009;50.656;7.188;2023-03-23T14:44:19;2.58;;;2.00;;
9940;SDS011;5009;50.656;7.188;2023-03-23T14:46:54;1.73;;;1.52;;
9940;SDS011;5009;50.656;7.188;2023-03-23T14:49:25;2.88;;;2.10;;
9940;SDS011;5009;50.656;7.188;2023-03-23T14:52:07;2.70;;;1.98;;
9940;SDS011;5009;50.656;7.188;2023-03-23T14:54:38;4.38;;;2.42;;
9940;SDS011;5009;50.656;7.188;2023-03-23T14:59:41;4.82;;;2.10;;
9940;SDS011;5009;50.656;7.188;2023-03-23T15:02:13;2.45;;;1.90;;
9940;SDS011;5009;50.656;7.188;2023-03-23T15:05:09;2.88;;;1.63;;
9940;SDS011;5009;50.656;7.188;2023-03-23T15:07:40;1.70;;;1.60;;
9940;SDS011;5009;50.656;7.188;2023-03-23T15:10:09;2.50;;;1.77;;
9940;SDS011;5009;50.656;7.188;2023-03-23T15:12:39;5.13;;;2.30;;
9940;SDS011;5009;50.656;7.188;2023-03-23T15:15:16;2.00;;;1.63;;
9940;SDS011;5009;50.656;7.188;2023-03-23T15:17:47;2.78;;;1.80;;
9940;SDS011;5009;50.656;7.188;2023-03-23T15:20:21;4.20;;;2.05;;
9940;SDS011;5009;50.656;7.188;2023-03-23T15:22:48;4.05;;;1.95;;
9940;SDS011;5009;50.656;7.188;2023-03-23T15:27:53;2.40;;;2.08;;
9940;SDS011;5009;50.656;7.188;2023-03-23T15:30:30;4.03;;;1.90;;
9940;SDS011;5009;50.656;7.188;2023-03-23T15:33:11;3.03;;;2.03;;
9940;SDS011;5009;50.656;7.188;2023-03-23T15:35:39;1.98;;;1.70;;
9940;SDS011;5009;50.656;7.188;2023-03-23T15:40:55;2.33;;;2.03;;
9940;SDS011;5009;50.656;7.188;2023-03-23T15:43:24;2.13;;;1.90;;
9940;SDS011;5009;50.656;7.188;2023-03-23T15:46:19;2.30;;;1.77;;
9940;SDS011;5009;50.656;7.188;2023-03-23T15:51:35;4.85;;;2.33;;
9940;SDS011;5009;50.656;7.188;2023-03-23T15:54:01;2.63;;;1.55;;
9940;SDS011;5009;50.656;7.188;2023-03-23T15:56:27;3.30;;;2.10;;
9940;SDS011;5009;50.656;7.188;2023-03-23T15:58:54;3.33;;;1.92;;
9940;SDS011;5009;50.656;7.188;2023-03-23T16:01:24;3.92;;;1.83;;
9940;SDS011;5009;50.656;7.188;2023-03-23T16:04:04;2.90;;;1.73;;
9940;SDS011;5009;50.656;7.188;2023-03-23T16:06:32;4.75;;;2.17;;
9940;SDS011;5009;50.656;7.188;2023-03-23T16:08:59;3.58;;;2.20;;
9940;SDS011;5009;50.656;7.188;2023-03-23T16:11:26;3.47;;;1.98;;
9940;SDS011;5009;50.656;7.188;2023-03-23T16:13:53;2.75;;;1.83;;
9940;SDS011;5009;50.656;7.188;2023-03-23T16:16:24;4.32;;;2.30;;
9940;SDS011;5009;50.656;7.188;2023-03-23T16:18:52;5.10;;;2.30;;
9940;SDS011;5009;50.656;7.188;2023-03-23T16:21:18;3.25;;;2.17;;
9940;SDS011;5009;50.656;7.188;2023-03-23T16:23:44;4.10;;;2.38;;
9940;SDS011;5009;50.656;7.188;2023-03-23T16:26:10;4.05;;;2.40;;
9940;SDS011;5009;50.656;7.188;2023-03-23T16:28:36;4.32;;;2.90;;
9940;SDS011;5009;50.656;7.188;2023-03-23T16:31:02;3.58;;;2.38;;
9940;SDS011;5009;50.656;7.188;2023-03-23T16:33:28;5.40;;;2.55;;
9940;SDS011;5009;50.656;7.188;2023-03-23T16:35:54;6.45;;;2.80;;
9940;SDS011;5009;50.656;7.188;2023-03-23T16:38:21;3.88;;;2.25;;
9940;SDS011;5009;50.656;7.188;2023-03-23T16:40:46;2.53;;;2.00;;
9940;SDS011;5009;50.656;7.188;2023-03-23T16:43:12;3.20;;;2.20;;
9940;SDS011;5009;50.656;7.188;2023-03-23T16:45:39;7.82;;;2.53;;
9940;SDS011;5009;50.656;7.188;2023-03-23T16:48:05;4.95;;;2.78;;
9940;SDS011;5009;50.656;7.188;2023-03-23T16:50:32;3.78;;;2.30;;
9940;SDS011;5009;50.656;7.188;2023-03-23T16:52:59;2.47;;;2.28;;
9940;SDS011;5009;50.656;7.188;2023-03-23T16:55:25;3.38;;;2.15;;
9940;SDS011;5009;50.656;7.188;2023-03-23T16:57:52;5.03;;;2.45;;
9940;SDS011;5009;50.656;7.188;2023-03-23T17:00:18;4.35;;;2.50;;
9940;SDS011;5009;50.656;7.188;2023-03-23T17:02:45;2.80;;;2.25;;
9940;SDS011;5009;50.656;7.188;2023-03-23T17:05:11;3.42;;;2.22;;
9940;SDS011;5009;50.656;7.188;2023-03-23T17:07:38;3.75;;;2.40;;
9940;SDS011;5009;50.656;7.188;2023-03-23T17:10:06;3.20;;;2.53;;
9940;SDS011;5009;50.656;7.188;2023-03-23T17:12:33;2.28;;;1.98;;
9940;SDS011;5009;50.656;7.188;2023-03-23T17:14:59;4.63;;;2.72;;
9940;SDS011;5009;50.656;7.188;2023-03-23T17:17:25;3.28;;;2.22;;
9940;SDS011;5009;50.656;7.188;2023-03-23T17:19:50;4.93;;;2.78;;
9940;SDS011;5009;50.656;7.188;2023-03-23T17:22:16;4.03;;;2.20;;
9940;SDS011;5009;50.656;7.188;2023-03-23T17:24:42;6.85;;;2.63;;
9940;SDS011;5009;50.656;7.188;2023-03-23T17:27:07;3.90;;;2.97;;
9940;SDS011;5009;50.656;7.188;2023-03-23T17:29:33;3.50;;;2.33;;
9940;SDS011;5009;50.656;7.188;2023-03-23T17:31:59;3.08;;;2.25;;
9940;SDS011;5009;50.656;7.188;2023-03-23T17:34:25;5.60;;;3.10;;
9940;SDS011;5009;50.656;7.188;2023-03-23T17:36:50;3.73;;;2.50;;
9940;SDS011;5009;50.656;7.188;2023-03-23T17:39:16;4.43;;;2.43;;
9940;SDS011;5009;50.656;7.188;2023-03-23T17:41:41;3.50;;;2.40;;
9940;SDS011;5009;50.656;7.188;2023-03-23T17:44:07;4.77;;;2.60;;
9940;SDS011;5009;50.656;7.188;2023-03-23T17:46:33;4.60;;;2.73;;
9940;SDS011;5009;50.656;7.188;2023-03-23T17:48:58;2.50;;;2.27;;
9940;SDS011;5009;50.656;7.188;2023-03-23T17:51:24;4.37;;;2.60;;
9940;SDS011;5009;50.656;7.188;2023-03-23T17:53:49;3.20;;;2.40;;
9940;SDS011;5009;50.656;7.188;2023-03-23T17:56:15;3.80;;;2.17;;
9940;SDS011;5009;50.656;7.188;2023-03-23T17:58:41;4.30;;;2.23;;
9940;SDS011;5009;50.656;7.188;2023-03-23T18:01:06;3.23;;;2.57;;
9940;SDS011;5009;50.656;7.188;2023-03-23T18:03:32;3.93;;;2.50;;
9940;SDS011;5009;50.656;7.188;2023-03-23T18:06:02;7.27;;;2.60;;
9940;SDS011;5009;50.656;7.188;2023-03-23T18:08:29;3.97;;;2.30;;
9940;SDS011;5009;50.656;7.188;2023-03-23T18:10:55;3.87;;;2.47;;
9940;SDS011;5009;50.656;7.188;2023-03-23T18:13:25;5.93;;;2.33;;
9940;SDS011;5009;50.656;7.188;2023-03-23T18:15:54;4.13;;;2.70;;
9940;SDS011;5009;50.656;7.188;2023-03-23T18:18:20;5.03;;;2.90;;
9940;SDS011;5009;50.656;7.188;2023-03-23T18:20:47;3.60;;;2.80;;
9940;SDS011;5009;50.656;7.188;2023-03-23T18:23:17;3.10;;;2.27;;
9940;SDS011;5009;50.656;7.188;2023-03-23T18:25:43;5.90;;;2.87;;
9940;SDS011;5009;50.656;7.188;2023-03-23T18:28:08;6.17;;;2.63;;
9940;SDS011;5009;50.656;7.188;2023-03-23T18:30:34;5.67;;;2.83;;
9940;SDS011;5009;50.656;7.188;2023-03-23T18:32:59;4.00;;;2.70;;
9940;SDS011;5009;50.656;7.188;2023-03-23T18:35:25;4.60;;;3.00;;
9940;SDS011;5009;50.656;7.188;2023-03-23T18:37:51;3.90;;;2.67;;
9940;SDS011;5009;50.656;7.188;2023-03-23T18:40:16;4.60;;;2.43;;
9940;SDS011;5009;50.656;7.188;2023-03-23T18:42:44;3.07;;;2.50;;
9940;SDS011;5009;50.656;7.188;2023-03-23T18:45:10;4.13;;;2.63;;
9940;SDS011;5009;50.656;7.188;2023-03-23T18:47:36;5.93;;;3.10;;
9940;SDS011;5009;50.656;7.188;2023-03-23T18:50:03;6.50;;;2.50;;
9940;SDS011;5009;50.656;7.188;2023-03-23T18:52:30;3.93;;;2.93;;
9940;SDS011;5009;50.656;7.188;2023-03-23T18:54:56;5.07;;;2.30;;
9940;SDS011;5009;50.656;7.188;2023-03-23T18:57:22;5.90;;;2.80;;
9940;SDS011;5009;50.656;7.188;2023-03-23T18:59:48;4.30;;;2.70;;
9940;SDS011;5009;50.656;7.188;2023-03-23T19:02:14;6.10;;;2.83;;
9940;SDS011;5009;50.656;7.188;2023-03-23T19:04:42;3.07;;;2.40;;
9940;SDS011;5009;50.656;7.188;2023-03-23T19:07:08;4.23;;;2.57;;
9940;SDS011;5009;50.656;7.188;2023-03-23T19:09:36;4.43;;;3.10;;
9940;SDS011;5009;50.656;7.188;2023-03-23T19:12:03;6.03;;;2.90;;
9940;SDS011;5009;50.656;7.188;2023-03-23T19:14:29;6.93;;;2.70;;
9940;SDS011;5009;50.656;7.188;2023-03-23T19:16:54;5.20;;;2.90;;
9940;SDS011;5009;50.656;7.188;2023-03-23T19:19:20;5.33;;;2.67;;
9940;SDS011;5009;50.656;7.188;2023-03-23T19:21:46;5.43;;;2.60;;
9940;SDS011;5009;50.656;7.188;2023-03-23T19:24:12;7.17;;;3.00;;
9940;SDS011;5009;50.656;7.188;2023-03-23T19:26:39;4.60;;;2.43;;
9940;SDS011;5009;50.656;7.188;2023-03-23T19:29:07;3.33;;;2.70;;
9940;SDS011;5009;50.656;7.188;2023-03-23T19:31:38;4.83;;;2.83;;
9940;SDS011;5009;50.656;7.188;2023-03-23T19:34:04;5.73;;;2.57;;
9940;SDS011;5009;50.656;7.188;2023-03-23T19:36:30;5.03;;;2.90;;
9940;SDS011;5009;50.656;7.188;2023-03-23T19:38:56;3.83;;;2.43;;
9940;SDS011;5009;50.656;7.188;2023-03-23T19:41:22;4.43;;;2.70;;
9940;SDS011;5009;50.656;7.188;2023-03-23T19:43:49;2.83;;;2.53;;
9940;SDS011;5009;50.656;7.188;2023-03-23T19:46:14;3.53;;;2.73;;
9940;SDS011;5009;50.656;7.188;2023-03-23T19:48:40;4.80;;;2.60;;
9940;SDS011;5009;50.656;7.188;2023-03-23T19:51:07;2.53;;;2.30;;
9940;SDS011;5009;50.656;7.188;2023-03-23T19:53:33;4.97;;;2.40;;
9940;SDS011;5009;50.656;7.188;2023-03-23T19:55:59;3.47;;;2.27;;
9940;SDS011;5009;50.656;7.188;2023-03-23T19:58:25;3.87;;;2.40;;
9940;SDS011;5009;50.656;7.188;2023-03-23T20:00:51;5.27;;;2.30;;
9940;SDS011;5009;50.656;7.188;2023-03-23T20:03:17;1.97;;;1.83;;
9940;SDS011;5009;50.656;7.188;2023-03-23T20:05:43;3.73;;;2.10;;
9940;SDS011;5009;50.656;7.188;2023-03-23T20:08:09;6.27;;;2.70;;
9940;SDS011;5009;50.656;7.188;2023-03-23T20:10:35;3.03;;;2.47;;
9940;SDS011;5009;50.656;7.188;2023-03-23T20:13:02;6.87;;;2.77;;
9940;SDS011;5009;50.656;7.188;2023-03-23T20:15:30;3.80;;;2.33;;
9940;SDS011;5009;50.656;7.188;2023-03-23T20:17:56;4.27;;;2.67;;
9940;SDS011;5009;50.656;7.188;2023-03-23T20:20:22;4.20;;;2.23;;
9940;SDS011;5009;50.656;7.188;2023-03-23T20:22:48;3.30;;;2.60;;
9940;SDS011;5009;50.656;7.188;2023-03-23T20:25:14;5.20;;;2.63;;
9940;SDS011;5009;50.656;7.188;2023-03-23T20:27:40;3.47;;;2.47;;
9940;SDS011;5009;50.656;7.188;2023-03-23T20:30:07;5.60;;;2.60;;
9940;SDS011;5009;50.656;7.188;2023-03-23T20:32:33;8.73;;;3.30;;
9940;SDS011;5009;50.656;7.188;2023-03-23T20:35:01;4.83;;;2.63;;
9940;SDS011;5009;50.656;7.188;2023-03-23T20:37:30;4.87;;;2.50;;
9940;SDS011;5009;50.656;7.188;2023-03-23T20:40:05;6.33;;;2.80;;
9940;SDS011;5009;50.656;7.188;2023-03-23T20:42:33;3.47;;;2.50;;
9940;SDS011;5009;50.656;7.188;2023-03-23T20:45:00;4.87;;;2.40;;
9940;SDS011;5009;50.656;7.188;2023-03-23T20:47:26;5.07;;;2.80;;
9940;SDS011;5009;50.656;7.188;2023-03-23T20:49:52;3.43;;;2.50;;
9940;SDS011;5009;50.656;7.188;2023-03-23T20:52:19;3.53;;;2.33;;
9940;SDS011;5009;50.656;7.188;2023-03-23T20:54:46;3.47;;;2.60;;
9940;SDS011;5009;50.656;7.188;2023-03-23T20:57:13;4.03;;;2.60;;
9940;SDS011;5009;50.656;7.188;2023-03-23T20:59:39;4.97;;;3.07;;
9940;SDS011;5009;50.656;7.188;2023-03-23T21:02:06;3.17;;;2.40;;
9940;SDS011;5009;50.656;7.188;2023-03-23T21:04:34;3.27;;;2.70;;
9940;SDS011;5009;50.656;7.188;2023-03-23T21:07:01;2.40;;;2.20;;
9940;SDS011;5009;50.656;7.188;2023-03-23T21:09:27;3.77;;;2.83;;
9940;SDS011;5009;50.656;7.188;2023-03-23T21:11:53;2.47;;;2.20;;
9940;SDS011;5009;50.656;7.188;2023-03-23T21:14:18;3.20;;;2.57;;
9940;SDS011;5009;50.656;7.188;2023-03-23T21:16:44;4.07;;;2.83;;
9940;SDS011;5009;50.656;7.188;2023-03-23T21:19:10;4.30;;;2.63;;
9940;SDS011;5009;50.656;7.188;2023-03-23T21:21:36;4.00;;;2.13;;
9940;SDS011;5009;50.656;7.188;2023-03-23T21:24:06;3.23;;;2.20;;
9940;SDS011;5009;50.656;7.188;2023-03-23T21:26:32;4.03;;;2.27;;
9940;SDS011;5009;50.656;7.188;2023-03-23T21:28:58;2.97;;;2.40;;
9940;SDS011;5009;50.656;7.188;2023-03-23T21:31:24;2.47;;;2.27;;
9940;SDS011;5009;50.656;7.188;2023-03-23T21:33:54;2.47;;;2.10;;
9940;SDS011;5009;50.656;7.188;2023-03-23T21:36:21;3.73;;;2.10;;
9940;SDS011;5009;50.656;7.188;2023-03-23T21:38:48;3.53;;;2.10;;
9940;SDS011;5009;50.656;7.188;2023-03-23T21:41:15;4.00;;;2.17;;
9940;SDS011;5009;50.656;7.188;2023-03-23T21:43:40;2.93;;;2.20;;
9940;SDS011;5009;50.656;7.188;2023-03-23T21:46:10;2.27;;;2.07;;
9940;SDS011;5009;50.656;7.188;2023-03-23T21:48:38;2.40;;;1.87;;